createdAt,value
2022-08-21T00:00:31.841Z,18.87
2022-08-21T00:03:21.025Z,18.86
2022-08-21T00:06:16.596Z,18.85
2022-08-21T00:09:16.566Z,18.87
2022-08-21T00:12:20.543Z,18.81
2022-08-21T00:15:20.837Z,18.83
2022-08-21T00:18:19.761Z,18.81
2022-08-21T00:21:13.267Z,18.83
2022-08-21T00:24:03.679Z,18.75
2022-08-21T00:30:03.392Z,18.73
2022-08-21T00:33:18.912Z,18.70
2022-08-21T00:36:15.850Z,18.70
2022-08-21T00:39:06.829Z,18.68
2022-08-21T00:42:01.544Z,18.68
2022-08-21T00:45:28.073Z,18.70
2022-08-21T00:48:27.156Z,18.63
2022-08-21T00:51:41.969Z,18.64
2022-08-21T00:54:46.312Z,18.65
2022-08-21T00:57:52.151Z,18.64
2022-08-21T01:00:46.771Z,18.59
2022-08-21T01:03:45.755Z,18.60
2022-08-21T01:06:43.702Z,18.60
2022-08-21T01:09:33.941Z,18.55
2022-08-21T01:12:35.554Z,18.54
2022-08-21T01:15:35.683Z,18.53
2022-08-21T01:18:28.759Z,18.51
2022-08-21T01:21:28.226Z,18.55
2022-08-21T01:24:30.525Z,18.49
2022-08-21T01:27:20.384Z,18.49
2022-08-21T01:30:31.167Z,18.52
2022-08-21T01:33:41.586Z,18.47
2022-08-21T01:36:54.171Z,18.46
2022-08-21T01:39:57.065Z,18.44
2022-08-21T01:42:59.758Z,18.45
2022-08-21T01:46:07.239Z,18.47
2022-08-21T01:49:06.918Z,18.45
2022-08-21T01:52:06.527Z,18.42
2022-08-21T02:01:06.824Z,18.40
2022-08-21T02:04:09.396Z,18.42
2022-08-21T02:10:59.650Z,18.42
2022-08-21T02:17:08.830Z,18.37
2022-08-21T02:19:56.930Z,18.34
2022-08-21T02:23:04.364Z,18.38
2022-08-21T02:26:03.207Z,18.34
2022-08-21T02:29:02.712Z,18.37
2022-08-21T02:32:15.296Z,18.35
2022-08-21T02:35:45.708Z,18.26
2022-08-21T02:39:03.193Z,18.25
2022-08-21T02:45:55.031Z,18.28
2022-08-21T02:48:58.375Z,18.27
2022-08-21T02:51:56.966Z,18.26
2022-08-21T02:58:02.790Z,18.21
2022-08-21T03:04:16.720Z,18.22
2022-08-21T03:07:23.872Z,18.19
2022-08-21T03:10:43.710Z,18.23
2022-08-21T03:13:49.936Z,18.19
2022-08-21T03:16:59.781Z,18.16
2022-08-21T03:20:12.167Z,18.21
2022-08-21T03:23:06.170Z,18.15
2022-08-21T03:26:27.835Z,18.14
2022-08-21T03:29:18.271Z,18.17
2022-08-21T03:32:17.096Z,18.14
2022-08-21T03:35:11.166Z,18.15
2022-08-21T03:38:21.329Z,18.07
2022-08-21T03:41:21.869Z,18.09
2022-08-21T03:44:34.404Z,18.05
2022-08-21T03:47:29.589Z,18.09
2022-08-21T03:50:26.632Z,18.08
2022-08-21T03:53:18.197Z,18.04
2022-08-21T03:56:13.633Z,18.04
2022-08-21T03:59:23.108Z,18.08
2022-08-21T04:05:49.879Z,18.03
2022-08-21T04:08:37.451Z,18.03
2022-08-21T04:11:36.488Z,17.98
2022-08-21T04:18:17.108Z,18.01
2022-08-21T04:21:11.505Z,17.97
2022-08-21T04:24:06.273Z,17.94
2022-08-21T04:27:07.100Z,17.93
2022-08-21T04:30:01.773Z,17.94
2022-08-21T04:32:58.496Z,17.90
2022-08-21T04:35:53.966Z,17.89
2022-08-21T04:38:44.685Z,17.88
2022-08-21T04:41:37.901Z,17.88
2022-08-21T04:44:26.290Z,17.88
2022-08-21T04:47:41.955Z,17.87
2022-08-21T04:50:46.164Z,17.83
2022-08-21T04:53:43.786Z,17.87
2022-08-21T04:56:42.568Z,17.80
2022-08-21T04:59:54.445Z,17.84
2022-08-21T05:03:02.940Z,17.75
2022-08-21T05:05:54.817Z,17.73
2022-08-21T05:08:43.530Z,17.73
2022-08-21T05:11:41.526Z,17.72
2022-08-21T05:14:36.939Z,17.74
2022-08-21T05:17:28.062Z,17.75
2022-08-21T05:20:21.472Z,17.73
2022-08-21T05:23:31.329Z,17.77
2022-08-21T05:26:46.135Z,17.73
2022-08-21T05:29:41.159Z,17.72
2022-08-21T05:32:29.285Z,17.72
2022-08-21T05:35:21.993Z,17.72
2022-08-21T05:38:16.640Z,17.71
2022-08-21T05:41:05.929Z,17.72
2022-08-21T05:43:55.980Z,17.74
2022-08-21T05:46:44.524Z,17.69
2022-08-21T05:49:56.464Z,17.68
2022-08-21T05:53:07.576Z,17.70
2022-08-21T05:56:14.321Z,17.71
2022-08-21T05:59:17.950Z,17.73
2022-08-21T06:02:09.419Z,17.67
2022-08-21T06:05:04.828Z,17.71
2022-08-21T06:08:03.679Z,17.71
2022-08-21T06:10:56.189Z,17.66
2022-08-21T06:13:47.284Z,17.71
2022-08-21T06:16:44.943Z,17.69
2022-08-21T06:19:44.030Z,17.73
2022-08-21T06:22:46.612Z,17.71
2022-08-21T06:25:38.916Z,17.67
2022-08-21T06:28:27.303Z,17.70
2022-08-21T06:31:23.563Z,17.73
2022-08-21T06:34:14.297Z,17.74
2022-08-21T06:37:03.529Z,17.70
2022-08-21T06:39:50.584Z,17.73
2022-08-21T07:21:38.513Z,17.78
2022-08-21T07:24:25.389Z,17.84
2022-08-21T07:27:14.728Z,17.85
2022-08-21T07:30:06.556Z,17.87
2022-08-21T07:32:53.579Z,17.90
2022-08-21T07:35:43.229Z,17.89
2022-08-21T07:38:30.150Z,17.91
2022-08-21T07:41:20.353Z,17.93
2022-08-21T07:44:07.178Z,17.95
2022-08-21T07:46:53.960Z,17.95
2022-08-21T07:49:40.743Z,17.97
2022-08-21T07:52:27.581Z,17.98
2022-08-21T07:55:24.026Z,18.00
2022-08-21T07:58:11.024Z,17.98
2022-08-21T08:00:58.188Z,18.00
2022-08-21T08:03:46.060Z,18.01
2022-08-21T08:06:32.863Z,18.03
2022-08-21T08:09:19.641Z,18.02
2022-08-21T08:12:06.632Z,18.04
2022-08-21T08:14:53.572Z,18.06
2022-08-21T08:17:40.452Z,18.08
2022-08-21T08:20:27.659Z,18.07
2022-08-21T08:23:17.431Z,18.10
2022-08-21T08:26:04.330Z,18.12
2022-08-21T08:28:51.138Z,18.12
2022-08-21T08:31:37.940Z,18.14
2022-08-21T08:34:25.733Z,18.15
2022-08-21T08:37:12.763Z,18.18
2022-08-21T08:39:59.714Z,18.18
2022-08-21T08:42:48.553Z,18.18
2022-08-21T08:45:43.440Z,18.17
2022-08-21T08:48:53.129Z,18.19
2022-08-21T08:51:45.034Z,18.19
2022-08-21T08:54:40.686Z,18.22
2022-08-21T08:57:27.775Z,18.24
2022-08-21T09:00:17.548Z,18.22
2022-08-21T09:03:04.750Z,18.26
2022-08-21T09:06:05.117Z,18.29
2022-08-21T09:08:57.377Z,18.32
2022-08-21T09:12:08.016Z,18.35
2022-08-21T09:15:21.245Z,18.35
2022-08-21T09:18:36.134Z,18.39
2022-08-21T09:21:25.968Z,18.39
2022-08-21T09:24:52.269Z,18.42
2022-08-21T09:27:39.172Z,18.45
2022-08-21T09:33:44.983Z,18.45
2022-08-21T09:36:46.208Z,18.49
2022-08-21T09:39:42.591Z,18.48
2022-08-21T09:42:33.365Z,18.52
2022-08-21T09:45:20.208Z,18.54
2022-08-21T09:48:26.471Z,18.57
2022-08-21T09:51:29.086Z,18.62
2022-08-21T09:54:18.914Z,18.63
2022-08-21T09:57:50.491Z,18.64
2022-08-21T10:00:38.031Z,18.66
2022-08-21T10:03:25.815Z,18.69
2022-08-21T10:06:29.972Z,18.72
2022-08-21T10:09:22.040Z,18.71
2022-08-21T10:12:24.136Z,18.76
2022-08-21T10:15:12.862Z,18.78
2022-08-21T10:18:34.965Z,18.82
2022-08-21T10:21:29.709Z,18.83
2022-08-21T10:24:32.171Z,18.85
2022-08-21T10:27:50.534Z,18.89
2022-08-21T10:31:02.257Z,18.92
2022-08-21T10:34:19.836Z,18.96
2022-08-21T10:37:31.208Z,18.98
2022-08-21T10:40:40.672Z,19.01
2022-08-21T10:44:05.679Z,19.05
2022-08-21T10:47:03.504Z,19.08
2022-08-21T10:49:54.231Z,19.10
2022-08-21T10:52:55.746Z,19.14
2022-08-21T10:56:41.641Z,19.13
2022-08-21T10:59:38.444Z,19.22
2022-08-21T11:02:44.095Z,19.23
2022-08-21T11:05:45.551Z,19.30
2022-08-21T11:08:50.513Z,19.38
2022-08-21T11:12:10.754Z,19.45
2022-08-21T11:15:43.660Z,19.60
2022-08-21T11:18:40.616Z,19.73
2022-08-21T11:21:42.925Z,19.84
2022-08-21T11:24:52.653Z,19.98
2022-08-21T11:27:50.624Z,20.06
2022-08-21T11:31:00.241Z,20.15
2022-08-21T11:34:06.455Z,20.28
2022-08-21T11:37:19.437Z,20.39
2022-08-21T11:40:18.708Z,20.54
2022-08-21T11:43:24.211Z,20.64
2022-08-21T11:46:49.795Z,20.70
2022-08-21T11:50:01.268Z,20.80
2022-08-21T11:53:17.310Z,20.87
2022-08-21T11:56:20.230Z,20.97
2022-08-21T11:59:14.036Z,21.08
2022-08-21T12:02:01.237Z,21.16
2022-08-21T12:04:52.520Z,21.30
2022-08-21T12:07:42.487Z,21.41
2022-08-21T12:10:40.694Z,21.51
2022-08-21T12:13:39.893Z,21.62
2022-08-21T12:16:32.588Z,21.74
2022-08-21T12:19:25.568Z,21.83
2022-08-21T12:22:15.349Z,21.89
2022-08-21T12:25:11.718Z,22.00
2022-08-21T12:28:10.327Z,22.08
2022-08-21T12:30:58.203Z,22.13
2022-08-21T12:33:52.286Z,22.15
2022-08-21T12:36:52.506Z,22.24
2022-08-21T12:39:39.889Z,22.31
2022-08-21T12:42:43.308Z,22.39
2022-08-21T12:45:34.517Z,22.48
2022-08-21T12:48:57.545Z,22.53
2022-08-21T12:51:53.536Z,22.62
2022-08-21T12:54:44.734Z,22.71
2022-08-21T12:57:31.781Z,22.76
2022-08-21T13:00:25.946Z,22.86
2022-08-21T13:03:15.380Z,22.91
2022-08-21T13:06:04.961Z,23.00
2022-08-21T13:09:08.270Z,23.16
2022-08-21T13:11:55.680Z,23.23
2022-08-21T13:14:46.057Z,23.32
2022-08-21T13:17:40.429Z,23.39
2022-08-21T13:20:33.469Z,23.42
2022-08-21T13:23:31.180Z,23.44
2022-08-21T13:26:39.078Z,23.54
2022-08-21T13:29:38.692Z,23.62
2022-08-21T13:32:32.366Z,23.66
2022-08-21T13:36:16.838Z,23.70
2022-08-21T13:39:08.226Z,23.73
2022-08-21T13:42:02.938Z,23.80
2022-08-21T13:44:54.661Z,23.85
2022-08-21T13:47:41.918Z,23.87
2022-08-21T13:50:28.794Z,23.91
2022-08-21T13:53:24.854Z,23.98
2022-08-21T13:56:23.601Z,24.06
2022-08-21T13:59:12.580Z,24.09
2022-08-21T14:02:12.253Z,24.18
2022-08-21T14:05:03.953Z,24.21
2022-08-21T14:07:52.357Z,24.26
2022-08-21T14:10:43.606Z,24.28
2022-08-21T14:13:38.663Z,24.36
2022-08-21T14:16:56.389Z,24.51
2022-08-21T14:19:46.477Z,24.63
2022-08-21T14:22:48.263Z,24.78
2022-08-21T14:25:44.901Z,24.93
2022-08-21T14:28:39.183Z,25.04
2022-08-21T14:31:35.980Z,25.10
2022-08-21T14:34:36.146Z,25.17
2022-08-21T14:37:27.689Z,25.30
2022-08-21T14:40:15.047Z,25.31
2022-08-21T14:43:15.219Z,25.37
2022-08-21T14:46:07.528Z,25.41
2022-08-21T14:49:24.314Z,25.45
2022-08-21T14:52:29.591Z,25.49
2022-08-21T14:56:19.252Z,25.55
2022-08-21T14:59:10.778Z,25.57
2022-08-21T15:01:58.998Z,25.59
2022-08-21T15:04:51.460Z,25.61
2022-08-21T15:07:41.434Z,25.63
2022-08-21T15:10:30.152Z,25.69
2022-08-21T15:13:32.589Z,25.67
2022-08-21T15:16:24.031Z,25.71
2022-08-21T15:19:13.429Z,25.74
2022-08-21T15:22:02.585Z,25.71
2022-08-21T15:24:52.585Z,25.71
2022-08-21T15:27:42.741Z,25.71
2022-08-21T15:31:03.522Z,25.74
2022-08-21T15:33:50.581Z,25.72
2022-08-21T15:36:40.674Z,25.69
2022-08-21T15:39:41.504Z,25.70
2022-08-21T15:42:33.405Z,25.69
2022-08-21T15:48:45.019Z,25.62
2022-08-21T15:51:43.604Z,25.64
2022-08-21T15:54:31.078Z,25.61
2022-08-21T15:57:21.508Z,25.56
2022-08-21T16:00:14.538Z,25.58
2022-08-21T16:03:04.375Z,25.57
2022-08-21T16:05:58.876Z,25.53
2022-08-21T16:08:54.762Z,25.51
2022-08-21T16:11:41.600Z,25.47
2022-08-21T16:14:30.612Z,25.44
2022-08-21T16:17:20.457Z,25.39
2022-08-21T16:20:21.399Z,25.36
2022-08-21T16:23:14.076Z,25.32
2022-08-21T16:26:07.508Z,25.29
2022-08-21T16:29:30.163Z,25.28
2022-08-21T16:35:39.567Z,25.20
2022-08-21T16:38:42.628Z,25.16
2022-08-21T16:45:35.054Z,25.08
2022-08-21T16:58:43.988Z,24.95
2022-08-21T17:01:33.751Z,24.97
2022-08-21T17:04:32.234Z,24.94
2022-08-21T17:13:54.434Z,24.85
2022-08-21T17:17:08.536Z,24.83
2022-08-21T17:20:20.500Z,24.81
2022-08-21T17:23:13.799Z,24.84
2022-08-21T17:26:04.601Z,24.78
2022-08-21T17:28:54.908Z,24.77
2022-08-21T17:31:58.251Z,24.76
2022-08-21T17:35:19.235Z,24.74
2022-08-21T17:38:21.368Z,24.70
2022-08-21T17:42:01.649Z,24.73
2022-08-21T17:49:09.228Z,24.62
2022-08-21T17:56:37.019Z,24.55
2022-08-21T18:00:01.782Z,24.58
2022-08-21T18:06:31.288Z,24.45
2022-08-21T18:09:25.153Z,24.43
2022-08-21T18:12:31.544Z,24.41
2022-08-21T18:15:26.650Z,24.41
2022-08-21T18:21:28.072Z,24.33
2022-08-21T18:24:42.102Z,24.33
2022-08-21T18:27:34.618Z,24.33
2022-08-21T18:30:34.916Z,24.26
2022-08-21T18:33:58.347Z,24.22
2022-08-21T18:39:47.300Z,24.18
2022-08-21T20:06:25.555Z,23.06
2022-08-21T23:31:25.183Z,20.54
